Time;durP1;ratioP1;P1;durP2;ratioP2;P2;SDS_P1;SDS_P2;PMS_P1;PMS_P2;Temp;Humidity;BMP_temperature;BMP_pressure;BME280_temperature;BME280_humidity;BME280_pressure;Samples;Min_cycle;Max_cycle;Signal;HPM_P1;HPM_P2
2023/10/22 00:00:48;;;;;;;;;;;;;;;10.73;92.83;99360.22;4878803;29;19942;-66
2023/10/22 00:03:51;;;;;;;;;;;;;;;10.79;91.90;99370.25;4878803;29;20288;-65
2023/10/22 00:06:54;;;;;;;;;;;;;;;10.73;92.96;99375.91;4878767;29;19958;-65
2023/10/22 00:09:58;;;;;;;;;;;;;;;10.90;91.35;99372.91;4878652;29;19976;-66
2023/10/22 00:13:01;;;;;;;;;;;;;;;10.83;91.31;99371.69;4878666;29;20387;-65
2023/10/22 00:16:04;;;;;;;;;;;;;;;10.86;90.80;99375.88;4878590;29;19927;-65
2023/10/22 00:19:08;;;;;;;;;;;;;;;10.89;90.55;99381.72;4878627;29;19980;-65
2023/10/22 00:22:12;;;;;;;;;;;;;;;10.70;91.46;99381.34;4878851;29;19923;-65
2023/10/22 00:25:15;;;;;;;;;;;;;;;10.83;90.31;99384.75;4878522;29;20276;-65
2023/10/22 00:28:18;;;;;;;;;;;;;;;10.95;89.20;99385.69;4881448;29;19975;-65
2023/10/22 00:31:21;;;;;;;;;;;;;;;10.89;89.48;99378.28;4881978;29;20032;-65
2023/10/22 00:34:24;;;;;;;;;;;;;;;11.01;89.08;99384.38;4882023;29;19966;-65
2023/10/22 00:37:27;;;;;;;;;;;;;;;10.81;91.25;99378.81;4870383;29;19926;-65
2023/10/22 00:40:31;;;;;;;;;;;;;;;10.86;90.88;99381.94;4881854;29;19923;-65
2023/10/22 00:43:34;;;;;;;;;;;;;;;10.93;90.30;99374.47;4881870;29;20291;-65
2023/10/22 00:46:38;;;;;;;;;;;;;;;11.06;89.36;99377.03;4881630;29;19938;-65
2023/10/22 00:49:42;;;;;;;;;;;;;;;11.07;89.18;99383.94;4881601;29;19942;-65
2023/10/22 00:52:45;;;;;;;;;;;;;;;11.10;88.91;99383.72;4881936;29;20538;-65
2023/10/22 00:55:48;;;;;;;;;;;;;;;11.06;88.48;99382.28;4880922;29;20383;-65
2023/10/22 00:58:52;;;;;;;;;;;;;;;11.01;89.21;99387.84;4881603;29;19923;-65
2023/10/22 01:01:56;;;;;;;;;;;;;;;11.08;89.29;99399.53;4869927;29;20396;-65
2023/10/22 01:05:00;;;;;;;;;;;;;;;11.15;89.65;99392.06;4881400;29;19923;-66
2023/10/22 01:08:06;;;;;;;;;;;;;;;10.78;91.15;99394.69;4881310;29;19922;-65
2023/10/22 01:11:10;;;;;;;;;;;;;;;10.78;91.99;99388.66;4869739;29;19927;-65
2023/10/22 01:14:13;;;;;;;;;;;;;;;10.83;91.20;99397.84;4881200;29;20047;-65
2023/10/22 01:17:16;;;;;;;;;;;;;;;10.92;90.95;99389.34;4881049;29;19967;-66
2023/10/22 01:20:20;;;;;;;;;;;;;;;10.78;90.87;99394.69;4881111;29;20753;-65
2023/10/22 01:23:23;;;;;;;;;;;;;;;10.74;91.22;99400.28;4881106;29;20022;-65
2023/10/22 01:26:26;;;;;;;;;;;;;;;10.77;91.08;99400.06;4881112;29;20010;-65
2023/10/22 01:29:29;;;;;;;;;;;;;;;10.78;91.07;99396.50;4880646;29;19942;-65
2023/10/22 01:32:33;;;;;;;;;;;;;;;10.80;91.26;99408.50;4881246;29;19963;-65
2023/10/22 01:35:37;;;;;;;;;;;;;;;10.74;91.43;99411.56;4869337;29;19971;-65
2023/10/22 01:38:40;;;;;;;;;;;;;;;10.73;90.85;99411.69;4879746;29;19923;-65
2023/10/22 01:41:43;;;;;;;;;;;;;;;10.63;91.59;99424.56;4880750;29;19923;-65
2023/10/22 01:45:11;;;;;;;;;;;;;;;10.51;92.15;99414.97;4880821;29;19926;-66
2023/10/22 01:48:14;;;;;;;;;;;;;;;10.49;93.18;99415.06;4878752;29;20419;-65
2023/10/22 01:51:17;;;;;;;;;;;;;;;10.65;92.04;99427.91;4878947;29;19942;-65
2023/10/22 01:54:19;;;;;;;;;;;;;;;10.75;91.20;99426.28;4878704;29;19923;-66
2023/10/22 01:57:23;;;;;;;;;;;;;;;10.66;88.27;99427.81;4878759;29;20383;-65
2023/10/22 02:00:27;;;;;;;;;;;;;;;10.82;88.99;99424.94;4878538;29;20006;-65
2023/10/22 02:03:32;;;;;;;;;;;;;;;10.86;89.21;99422.94;4880384;29;20337;-65
2023/10/22 02:06:36;;;;;;;;;;;;;;;11.02;88.48;99430.53;4868906;29;20323;-65
2023/10/22 02:09:39;;;;;;;;;;;;;;;10.89;90.47;99434.00;4868765;29;19976;-65
2023/10/22 02:12:42;;;;;;;;;;;;;;;10.86;90.39;99434.22;4868763;29;19963;-65
2023/10/22 02:15:45;;;;;;;;;;;;;;;10.70;91.45;99433.66;4880040;29;20304;-65
2023/10/22 02:18:48;;;;;;;;;;;;;;;10.93;90.58;99427.63;4868569;29;19922;-65
2023/10/22 02:21:53;;;;;;;;;;;;;;;10.84;91.25;99423.03;4880052;29;19938;-65
2023/10/22 02:24:56;;;;;;;;;;;;;;;10.91;91.32;99418.19;4880016;29;20292;-65
2023/10/22 02:27:59;;;;;;;;;;;;;;;10.96;90.92;99423.13;4868111;29;20006;-65
2023/10/22 02:31:04;;;;;;;;;;;;;;;10.97;90.50;99419.56;4868276;29;19926;-65
2023/10/22 02:34:08;;;;;;;;;;;;;;;10.89;91.19;99422.72;4868241;29;20344;-65
2023/10/22 02:37:11;;;;;;;;;;;;;;;10.93;90.81;99414.53;4879714;29;19923;-65
2023/10/22 02:40:14;;;;;;;;;;;;;;;10.87;90.86;99430.66;4879744;29;19971;-65
2023/10/22 02:43:18;;;;;;;;;;;;;;;10.74;92.18;99419.41;4879716;29;20375;-65
2023/10/22 02:46:21;;;;;;;;;;;;;;;10.75;92.30;99425.47;4879620;29;19926;-66
2023/10/22 02:49:23;;;;;;;;;;;;;;;10.74;91.52;99423.81;4867634;29;19927;-65
2023/10/22 02:52:27;;;;;;;;;;;;;;;10.67;92.35;99431.25;4879780;29;20400;-65
2023/10/22 02:55:29;;;;;;;;;;;;;;;10.71;91.59;99424.84;4879425;29;20407;-65
2023/10/22 02:58:32;;;;;;;;;;;;;;;10.89;91.08;99425.34;4879726;29;19923;-65
2023/10/22 03:01:36;;;;;;;;;;;;;;;11.03;89.05;99429.56;4879312;29;20054;-65
2023/10/22 03:04:39;;;;;;;;;;;;;;;11.08;89.68;99432.72;4867770;29;19922;-65
2023/10/22 03:07:42;;;;;;;;;;;;;;;11.11;90.40;99433.31;4879302;29;19922;-65
2023/10/22 03:10:45;;;;;;;;;;;;;;;11.02;90.75;99427.91;4879286;29;20421;-65
2023/10/22 03:13:49;;;;;;;;;;;;;;;11.11;90.30;99425.47;4879588;29;19967;-66
2023/10/22 03:16:52;;;;;;;;;;;;;;;11.11;90.65;99427.25;4867615;29;19922;-65
2023/10/22 03:19:56;;;;;;;;;;;;;;;11.10;90.38;99436.91;4879205;29;20311;-65
2023/10/22 03:23:01;;;;;;;;;;;;;;;11.07;92.11;99446.72;4879325;29;19922;-65
2023/10/22 03:26:05;;;;;;;;;;;;;;;11.08;90.99;99448.41;4879147;29;20481;-65
2023/10/22 03:29:08;;;;;;;;;;;;;;;11.20;90.37;99446.66;4878770;29;20439;-66
2023/10/22 03:32:11;;;;;;;;;;;;;;;11.31;90.24;99449.38;4878976;29;20014;-65
2023/10/22 03:35:15;;;;;;;;;;;;;;;11.29;90.16;99452.06;4867539;29;19922;-65
2023/10/22 03:38:18;;;;;;;;;;;;;;;11.31;90.33;99457.22;4879041;29;19966;-65
2023/10/22 03:41:21;;;;;;;;;;;;;;;11.28;89.48;99445.19;4878930;29;19926;-65
2023/10/22 03:44:24;;;;;;;;;;;;;;;11.38;89.40;99448.78;4878943;29;19922;-65
2023/10/22 03:47:28;;;;;;;;;;;;;;;11.16;91.78;99446.06;4878817;29;20356;-66
2023/10/22 03:50:31;;;;;;;;;;;;;;;11.28;90.86;99454.81;4867339;29;20325;-65
2023/10/22 03:53:35;;;;;;;;;;;;;;;11.40;89.52;99465.25;4867339;29;19931;-65
2023/10/22 03:56:39;;;;;;;;;;;;;;;11.33;90.73;99474.47;4878848;29;19922;-65
2023/10/22 03:59:43;;;;;;;;;;;;;;;11.49;90.10;99473.38;4878849;29;20030;-65
2023/10/22 04:02:46;;;;;;;;;;;;;;;11.58;89.84;99475.31;4881332;29;19974;-65
2023/10/22 04:05:57;;;;;;;;;;;;;;;11.59;90.25;99479.59;4882493;29;19967;-65
2023/10/22 04:09:00;;;;;;;;;;;;;;;11.39;88.22;99486.28;4882391;29;19922;-66
2023/10/22 04:12:03;;;;;;;;;;;;;;;11.58;84.42;99491.88;4882320;29;19927;-65
2023/10/22 04:15:07;;;;;;;;;;;;;;;11.68;89.17;99494.66;4882480;29;19973;-65
2023/10/22 04:18:10;;;;;;;;;;;;;;;11.70;85.11;99503.22;4870696;29;20028;-66
2023/10/22 04:21:13;;;;;;;;;;;;;;;11.86;86.04;99497.72;4882340;29;20391;-65
2023/10/22 04:24:16;;;;;;;;;;;;;;;11.83;88.32;99513.63;4882281;29;19926;-66
2023/10/22 04:27:19;;;;;;;;;;;;;;;11.77;84.41;99514.06;4882211;29;19922;-65
2023/10/22 04:30:22;;;;;;;;;;;;;;;11.86;82.57;99511.63;4881949;29;19931;-65
2023/10/22 04:33:26;;;;;;;;;;;;;;;11.95;81.64;99517.16;4882021;29;19984;-65
2023/10/22 04:36:29;;;;;;;;;;;;;;;11.96;81.64;99527.50;4882086;29;19922;-65
2023/10/22 04:39:32;;;;;;;;;;;;;;;12.01;81.11;99530.63;4882273;29;19922;-66
2023/10/22 04:42:35;;;;;;;;;;;;;;;12.04;81.38;99533.03;4882032;29;19923;-65
2023/10/22 04:45:45;;;;;;;;;;;;;;;12.07;80.70;99540.66;4881806;29;19970;-65
2023/10/22 04:48:48;;;;;;;;;;;;;;;12.10;81.32;99532.59;4882155;29;19966;-66
2023/10/22 04:51:51;;;;;;;;;;;;;;;12.18;80.09;99528.53;4881772;29;19926;-66
2023/10/22 04:54:54;;;;;;;;;;;;;;;12.12;82.49;99536.88;4881683;29;19922;-66
2023/10/22 04:57:57;;;;;;;;;;;;;;;12.12;81.28;99545.56;4881619;29;20420;-66
2023/10/22 05:01:00;;;;;;;;;;;;;;;12.17;83.09;99548.69;4881608;29;19922;-66
2023/10/22 05:04:04;;;;;;;;;;;;;;;12.14;81.99;99540.22;4881561;29;19962;-66
2023/10/22 05:07:08;;;;;;;;;;;;;;;12.13;86.04;99552.50;4881556;29;20397;-66
2023/10/22 05:13:54;;;;;;;;;;;;;;;12.09;83.04;99564.97;4881335;29;19964;-66
2023/10/22 05:17:05;;;;;;;;;;;;;;;12.17;81.12;99559.16;4881631;29;19931;-66
2023/10/22 05:20:08;;;;;;;;;;;;;;;12.25;81.00;99562.06;4881329;29;20444;-66
2023/10/22 05:23:11;;;;;;;;;;;;;;;12.21;80.86;99571.09;4881295;29;19972;-66
2023/10/22 05:26:17;;;;;;;;;;;;;;;12.26;84.98;99587.31;4881184;29;19938;-66
2023/10/22 05:29:20;;;;;;;;;;;;;;;12.13;82.58;99586.56;4880253;29;19926;-65
2023/10/22 05:32:23;;;;;;;;;;;;;;;12.18;82.71;99581.78;4879318;29;19964;-66
2023/10/22 05:35:26;;;;;;;;;;;;;;;12.16;82.46;99586.31;4878133;29;19926;-66
2023/10/22 05:38:29;;;;;;;;;;;;;;;12.19;84.14;99587.84;4878034;29;19971;-66
2023/10/22 05:41:32;;;;;;;;;;;;;;;12.16;83.69;99588.94;4878555;29;19923;-66
2023/10/22 05:44:36;;;;;;;;;;;;;;;12.11;84.44;99598.91;4878697;29;19923;-66
2023/10/22 05:47:39;;;;;;;;;;;;;;;12.07;85.03;99600.09;4878430;29;20601;-66
2023/10/22 05:50:47;;;;;;;;;;;;;;;12.10;84.60;99599.88;4868142;29;20284;-65
2023/10/22 05:53:50;;;;;;;;;;;;;;;12.00;85.21;99609.38;4879839;29;20104;-65
2023/10/22 05:56:54;;;;;;;;;;;;;;;12.01;84.61;99614.47;4879868;29;19942;-65
2023/10/22 05:59:57;;;;;;;;;;;;;;;12.14;84.08;99618.84;4879606;29;19926;-66
2023/10/22 06:03:01;;;;;;;;;;;;;;;12.05;85.02;99617.72;4879475;29;19963;-66
2023/10/22 06:06:04;;;;;;;;;;;;;;;12.02;85.00;99617.94;4879566;29;19923;-66
2023/10/22 06:09:10;;;;;;;;;;;;;;;12.02;84.96;99617.94;4878824;29;19995;-65
2023/10/22 06:12:13;;;;;;;;;;;;;;;12.00;84.58;99614.59;4878608;29;19958;-66
2023/10/22 06:15:17;;;;;;;;;;;;;;;12.01;84.26;99626.75;4879336;29;19974;-66
2023/10/22 06:18:19;;;;;;;;;;;;;;;11.96;84.17;99628.84;4879259;29;19922;-66
2023/10/22 06:21:22;;;;;;;;;;;;;;;12.00;84.29;99631.16;4879290;29;19922;-66
2023/10/22 06:24:26;;;;;;;;;;;;;;;11.94;84.63;99638.63;4878455;29;19996;-66
2023/10/22 06:27:30;;;;;;;;;;;;;;;11.98;84.29;99643.53;4879206;29;19922;-66
2023/10/22 06:30:34;;;;;;;;;;;;;;;12.01;83.72;99647.72;5110322;27;20317;-66
2023/10/22 06:33:37;;;;;;;;;;;;;;;12.08;83.47;99643.69;5111138;28;19923;-66
2023/10/22 06:36:41;;;;;;;;;;;;;;;12.03;83.69;99651.06;5110747;28;19927;-66
2023/10/22 06:39:44;;;;;;;;;;;;;;;12.10;83.84;99647.88;5110558;28;20464;-66
2023/10/22 06:42:48;;;;;;;;;;;;;;;12.08;83.83;99643.69;5109847;28;20341;-66
2023/10/22 06:45:51;;;;;;;;;;;;;;;12.03;83.64;99645.81;5110236;28;20395;-68
2023/10/22 06:48:54;;;;;;;;;;;;;;;12.04;83.76;99655.34;5110070;28;19927;-65
2023/10/22 06:51:57;;;;;;;;;;;;;;;12.05;83.73;99655.22;5110277;28;19923;-66
2023/10/22 06:55:00;;;;;;;;;;;;;;;12.03;83.59;99657.13;5109857;28;19923;-66
2023/10/22 06:58:03;;;;;;;;;;;;;;;12.09;83.45;99666.31;5110006;28;19981;-66
2023/10/22 07:01:07;;;;;;;;;;;;;;;12.09;83.39;99668.94;5109950;28;19969;-66
2023/10/22 07:04:10;;;;;;;;;;;;;;;12.16;83.02;99675.44;5109926;28;20563;-66
2023/10/22 07:07:13;;;;;;;;;;;;;;;12.07;83.39;99689.19;5109969;28;19966;-66
2023/10/22 07:10:17;;;;;;;;;;;;;;;12.08;83.93;99689.06;5109413;28;20393;-66
2023/10/22 07:13:20;;;;;;;;;;;;;;;12.11;84.02;99698.50;5109787;28;19934;-66
2023/10/22 07:16:23;;;;;;;;;;;;;;;12.15;83.78;99692.09;5108651;28;19926;-66
2023/10/22 07:19:27;;;;;;;;;;;;;;;12.19;83.04;99696.19;5108381;28;19931;-66
2023/10/22 07:22:30;;;;;;;;;;;;;;;12.34;83.54;99707.31;5108731;28;19930;-67
2023/10/22 07:25:33;;;;;;;;;;;;;;;12.28;82.62;99706.00;5108971;28;19984;-72
2023/10/22 07:28:41;;;;;;;;;;;;;;;12.42;81.74;99704.16;5109205;28;20019;-67
2023/10/22 07:31:46;;;;;;;;;;;;;;;12.25;83.91;99707.97;5109229;28;20402;-67
2023/10/22 07:34:49;;;;;;;;;;;;;;;12.33;82.65;99722.22;5109330;28;19923;-66
2023/10/22 07:37:52;;;;;;;;;;;;;;;12.56;82.39;99717.06;5109053;28;19922;-67
2023/10/22 07:40:58;;;;;;;;;;;;;;;12.66;81.78;99725.94;5101177;28;19935;-66
2023/10/22 07:44:02;;;;;;;;;;;;;;;12.79;81.41;99721.47;5075163;28;19924;-66
2023/10/22 07:47:05;;;;;;;;;;;;;;;12.92;81.88;99723.16;5075336;28;19969;-66
2023/10/22 07:50:11;;;;;;;;;;;;;;;12.95;80.75;99738.69;5075020;28;20012;-68
2023/10/22 07:53:14;;;;;;;;;;;;;;;12.98;80.46;99739.28;5075476;28;19923;-66
2023/10/22 07:56:18;;;;;;;;;;;;;;;12.87;81.68;99738.44;5074924;28;19923;-66
2023/10/22 07:59:21;;;;;;;;;;;;;;;12.90;81.41;99749.53;5074961;28;19997;-65
2023/10/22 08:02:25;;;;;;;;;;;;;;;12.85;82.49;99748.19;5073547;28;19963;-65
2023/10/22 08:05:29;;;;;;;;;;;;;;;12.68;80.62;99758.16;5074614;28;20426;-64
2023/10/22 08:08:31;;;;;;;;;;;;;;;12.78;80.57;99748.66;5074699;28;20287;-65
2023/10/22 08:11:34;;;;;;;;;;;;;;;12.87;80.21;99760.25;5075089;28;19969;-65
2023/10/22 08:14:38;;;;;;;;;;;;;;;12.98;79.41;99755.03;5074624;28;19951;-72
2023/10/22 08:17:41;;;;;;;;;;;;;;;12.96;79.91;99761.38;5075048;28;20305;-67
2023/10/22 08:20:44;;;;;;;;;;;;;;;12.84;80.54;99762.28;5074875;28;19971;-66
2023/10/22 08:23:47;;;;;;;;;;;;;;;12.93;80.09;99764.22;5074789;28;19924;-68
2023/10/22 08:26:50;;;;;;;;;;;;;;;12.97;80.05;99765.66;5074839;28;20026;-67
2023/10/22 08:29:54;;;;;;;;;;;;;;;13.10;79.80;99778.69;5074316;28;20437;-65
2023/10/22 08:32:58;;;;;;;;;;;;;;;13.25;79.37;99778.44;5074151;28;20025;-66
2023/10/22 08:36:05;;;;;;;;;;;;;;;13.26;79.76;99784.50;5074659;28;19967;-66
2023/10/22 08:39:10;;;;;;;;;;;;;;;13.18;79.98;99785.06;5074846;28;20406;-66
2023/10/22 08:42:19;;;;;;;;;;;;;;;13.06;81.33;99798.25;5074842;28;19927;-66
2023/10/22 08:45:22;;;;;;;;;;;;;;;13.20;81.00;99798.88;5074312;28;19977;-65
2023/10/22 08:48:27;;;;;;;;;;;;;;;13.30;80.99;99804.31;5074278;28;19972;-66
2023/10/22 08:51:30;;;;;;;;;;;;;;;13.35;81.90;99804.00;5074068;28;19922;-66
2023/10/22 08:54:33;;;;;;;;;;;;;;;13.21;82.33;99813.72;5074276;28;19927;-65
2023/10/22 08:57:37;;;;;;;;;;;;;;;13.25;82.96;99815.19;5074071;28;19939;-65
2023/10/22 09:00:45;;;;;;;;;;;;;;;13.12;82.08;99819.63;5072704;28;20387;-65
2023/10/22 09:03:48;;;;;;;;;;;;;;;13.10;82.21;99820.69;5073326;28;19924;-66
2023/10/22 09:06:52;;;;;;;;;;;;;;;13.16;82.41;99818.44;5073649;28;20015;-68
2023/10/22 09:09:55;;;;;;;;;;;;;;;13.15;82.89;99829.09;5074452;28;19923;-66
2023/10/22 09:13:16;;;;;;;;;;;;;;;13.25;82.90;99830.94;5073949;28;20025;-66
2023/10/22 09:16:28;;;;;;;;;;;;;;;13.12;84.24;99835.38;5074016;28;20009;-66
2023/10/22 09:19:41;;;;;;;;;;;;;;;13.17;83.12;99833.25;5073736;28;20434;-67
2023/10/22 09:22:45;;;;;;;;;;;;;;;13.24;84.62;99833.63;5074071;28;19922;-66
2023/10/22 09:25:52;;;;;;;;;;;;;;;13.20;82.33;99837.44;5073881;28;19967;-68
2023/10/22 09:29:04;;;;;;;;;;;;;;;13.34;83.20;99839.09;5073531;28;19966;-68
2023/10/22 09:32:08;;;;;;;;;;;;;;;13.43;82.90;99847.13;5073780;28;19923;-68
2023/10/22 09:35:13;;;;;;;;;;;;;;;13.27;83.04;99843.94;5073684;28;19985;-68
2023/10/22 09:38:16;;;;;;;;;;;;;;;13.48;81.84;99844.97;5073642;28;19924;-66
2023/10/22 09:41:19;;;;;;;;;;;;;;;13.42;82.41;99848.03;5073563;28;19923;-66
2023/10/22 09:44:23;;;;;;;;;;;;;;;13.60;81.83;99855.50;5073825;28;20395;-67
2023/10/22 09:47:26;;;;;;;;;;;;;;;13.63;80.95;99856.09;5071983;28;19924;-67
2023/10/22 09:50:30;;;;;;;;;;;;;;;13.55;80.83;99858.47;5071971;28;19923;-68
2023/10/22 09:53:37;;;;;;;;;;;;;;;13.57;81.48;99867.06;5072223;28;20406;-67
2023/10/22 09:56:43;;;;;;;;;;;;;;;13.71;81.12;99866.03;5073068;28;20069;-68
2023/10/22 09:59:46;;;;;;;;;;;;;;;13.62;80.89;99874.59;5073031;28;19959;-66
2023/10/22 10:02:49;;;;;;;;;;;;;;;13.63;80.94;99871.88;5073519;28;19970;-68
2023/10/22 10:05:53;;;;;;;;;;;;;;;13.74;80.95;99876.31;5073455;28;19923;-68
2023/10/22 10:08:58;;;;;;;;;;;;;;;13.66;80.37;99882.16;5073386;28;19923;-67
2023/10/22 10:12:04;;;;;;;;;;;;;;;13.63;80.04;99877.13;5073395;28;20401;-68
2023/10/22 10:15:08;;;;;;;;;;;;;;;13.58;80.58;99887.13;5073214;28;19923;-68
2023/10/22 10:18:11;;;;;;;;;;;;;;;13.62;79.70;99880.69;5073141;28;20405;-67
2023/10/22 10:21:33;;;;;;;;;;;;;;;13.65;80.23;99892.75;5072704;28;19943;-66
2023/10/22 10:24:36;;;;;;;;;;;;;;;13.68;79.42;99901.25;5072915;28;19923;-67
2023/10/22 10:27:50;;;;;;;;;;;;;;;13.66;79.85;99897.09;5072926;28;19970;-66
2023/10/22 10:31:13;;;;;;;;;;;;;;;13.62;80.27;99906.13;5073030;28;20025;-73
2023/10/22 10:34:33;;;;;;;;;;;;;;;13.69;80.59;99899.47;5073293;28;20306;-71
2023/10/22 10:37:36;;;;;;;;;;;;;;;13.71;79.25;99910.69;5073082;28;20001;-73
2023/10/22 10:40:42;;;;;;;;;;;;;;;13.84;78.83;99911.44;5072907;28;20613;-71
2023/10/22 10:44:03;;;;;;;;;;;;;;;13.82;79.35;99909.91;5073316;28;19924;-72
2023/10/22 10:47:22;;;;;;;;;;;;;;;13.72;78.44;99909.75;5072876;28;19924;-64
2023/10/22 10:50:25;;;;;;;;;;;;;;;13.48;78.40;99913.25;5072595;28;19994;-66
2023/10/22 10:53:49;;;;;;;;;;;;;;;13.48;79.21;99920.28;5072681;28;19923;-65
2023/10/22 10:56:57;;;;;;;;;;;;;;;13.55;79.18;99913.63;5072590;28;19923;-66
2023/10/22 11:00:01;;;;;;;;;;;;;;;13.73;79.03;99914.06;5072489;28;19927;-65
2023/10/22 11:03:08;;;;;;;;;;;;;;;13.64;79.50;99918.19;5072563;28;20062;-66
2023/10/22 11:06:12;;;;;;;;;;;;;;;13.63;77.73;99913.91;5072753;28;19966;-66
2023/10/22 11:09:15;;;;;;;;;;;;;;;13.68;77.92;99917.00;5072683;28;19927;-66
2023/10/22 11:12:19;;;;;;;;;;;;;;;13.71;77.61;99922.03;5071816;28;20395;-66
2023/10/22 11:15:30;;;;;;;;;;;;;;;13.57;77.50;99924.88;5073183;28;20333;-65
2023/10/22 11:18:50;;;;;;;;;;;;;;;13.70;77.96;99915.09;5076107;28;19969;-66
2023/10/22 11:21:56;;;;;;;;;;;;;;;13.69;78.21;99918.69;5076152;28;19946;-66
2023/10/22 11:25:00;;;;;;;;;;;;;;;13.71;78.81;99916.78;5076195;28;19971;-66
2023/10/22 11:28:05;;;;;;;;;;;;;;;13.55;78.34;99926.75;5076006;28;19943;-66
2023/10/22 11:31:22;;;;;;;;;;;;;;;13.52;78.52;99923.53;5076074;28;19944;-63
2023/10/22 11:34:25;;;;;;;;;;;;;;;13.63;78.64;99918.31;5075892;28;19922;-65
2023/10/22 11:37:30;;;;;;;;;;;;;;;13.79;78.32;99913.59;5075864;28;19923;-64
2023/10/22 11:40:39;;;;;;;;;;;;;;;13.81;77.64;99923.97;5075822;28;19927;-66
2023/10/22 11:43:43;;;;;;;;;;;;;;;13.86;78.13;99919.22;5075728;28;19958;-65
2023/10/22 11:46:46;;;;;;;;;;;;;;;13.80;77.78;99924.94;5075558;28;19931;-65
2023/10/22 11:49:50;;;;;;;;;;;;;;;13.79;77.55;99929.34;5075402;28;19923;-66
2023/10/22 11:52:53;;;;;;;;;;;;;;;13.72;78.36;99933.41;5075863;28;20288;-68
2023/10/22 11:55:57;;;;;;;;;;;;;;;13.67;78.33;99936.34;5075493;28;20025;-66
2023/10/22 11:59:00;;;;;;;;;;;;;;;13.61;78.85;99942.06;5075565;28;19973;-66
2023/10/22 12:02:03;;;;;;;;;;;;;;;13.63;78.54;99940.19;5075725;28;20129;-66
2023/10/22 12:05:06;;;;;;;;;;;;;;;13.57;78.23;99942.41;5075247;28;20387;-66
2023/10/22 12:08:10;;;;;;;;;;;;;;;13.69;78.81;99944.13;5075336;28;20370;-67
2023/10/22 12:11:14;;;;;;;;;;;;;;;13.70;78.42;99944.00;5075100;28;20500;-67
2023/10/22 12:14:17;;;;;;;;;;;;;;;13.72;78.67;99950.00;5075002;28;20330;-67
2023/10/22 12:17:20;;;;;;;;;;;;;;;13.72;78.16;99944.75;5075215;28;19945;-68
2023/10/22 12:20:24;;;;;;;;;;;;;;;13.69;78.56;99957.28;5075065;28;20029;-68
2023/10/22 12:23:27;;;;;;;;;;;;;;;13.80;79.04;99973.06;5075003;28;19923;-67
2023/10/22 12:26:30;;;;;;;;;;;;;;;13.79;78.25;99962.69;5074837;28;20395;-68
2023/10/22 12:29:33;;;;;;;;;;;;;;;13.69;78.32;99981.75;5074564;28;19927;-67
2023/10/22 12:32:37;;;;;;;;;;;;;;;13.62;78.98;99983.13;5074291;28;19923;-68
2023/10/22 12:35:40;;;;;;;;;;;;;;;13.71;78.88;99990.34;5074588;28;19923;-67
2023/10/22 12:38:43;;;;;;;;;;;;;;;13.69;79.12;99987.00;5073954;28;19974;-67
2023/10/22 12:41:47;;;;;;;;;;;;;;;13.67;79.71;99985.44;5072590;28;20335;-68
2023/10/22 12:44:56;;;;;;;;;;;;;;;13.58;79.53;99986.94;5071946;28;19967;-68
2023/10/22 12:47:59;;;;;;;;;;;;;;;13.60;79.87;99992.09;5073209;28;19981;-70
2023/10/22 12:51:03;;;;;;;;;;;;;;;13.65;80.28;100011.81;5071096;28;19973;-69
2023/10/22 12:54:06;;;;;;;;;;;;;;;13.46;80.26;100008.84;5094203;28;19969;-68
2023/10/22 12:57:10;;;;;;;;;;;;;;;13.59;80.83;100000.91;5081885;28;19923;-68
2023/10/22 13:00:14;;;;;;;;;;;;;;;13.63;80.15;99995.34;5073729;28;19932;-68
2023/10/22 13:03:17;;;;;;;;;;;;;;;13.66;79.14;100000.38;5103612;28;19922;-69
2023/10/22 13:06:20;;;;;;;;;;;;;;;13.83;78.95;100014.06;5113822;28;19927;-67
2023/10/22 13:09:24;;;;;;;;;;;;;;;13.80;79.68;100019.53;5093368;28;20397;-66
2023/10/22 13:12:27;;;;;;;;;;;;;;;13.49;82.21;100014.72;5092605;28;19942;-67
2023/10/22 13:15:31;;;;;;;;;;;;;;;13.60;82.54;100026.25;5104045;28;19923;-68
2023/10/22 13:18:34;;;;;;;;;;;;;;;13.53;83.02;100028.50;5113288;28;20283;-67
2023/10/22 13:21:38;;;;;;;;;;;;;;;13.71;82.52;100036.81;5112112;28;19922;-67
2023/10/22 13:24:41;;;;;;;;;;;;;;;13.53;83.36;100031.13;5112590;28;19922;-67
2023/10/22 13:27:44;;;;;;;;;;;;;;;13.56;84.58;100030.91;5113218;28;19922;-67
2023/10/22 13:30:48;;;;;;;;;;;;;;;13.54;85.03;100034.56;5107105;28;19934;-68
2023/10/22 13:33:52;;;;;;;;;;;;;;;13.53;85.28;100043.38;5112861;28;20008;-68
2023/10/22 13:36:55;;;;;;;;;;;;;;;13.47;85.73;100044.69;5080990;28;19967;-67
2023/10/22 13:39:58;;;;;;;;;;;;;;;13.44;86.00;100055.41;5091716;28;20339;-68
2023/10/22 13:43:01;;;;;;;;;;;;;;;13.40;86.07;100048.69;5071523;28;20610;-68
2023/10/22 13:46:04;;;;;;;;;;;;;;;13.44;86.43;100044.91;5071307;28;20039;-67
2023/10/22 13:49:07;;;;;;;;;;;;;;;13.43;86.59;100048.47;5103900;28;19961;-67
2023/10/22 13:52:10;;;;;;;;;;;;;;;13.44;86.15;100043.13;5107897;28;19939;-68
2023/10/22 13:55:13;;;;;;;;;;;;;;;13.42;86.68;100049.41;5091837;28;19941;-67
2023/10/22 13:58:17;;;;;;;;;;;;;;;13.42;86.73;100044.16;5091971;28;19970;-67
2023/10/22 14:01:20;;;;;;;;;;;;;;;13.40;86.91;100048.69;5091377;28;20064;-67
2023/10/22 14:04:23;;;;;;;;;;;;;;;13.49;86.42;100050.66;5095440;28;19999;-67
2023/10/22 14:07:40;;;;;;;;;;;;;;;13.57;86.30;100060.63;5111786;28;19922;-68
2023/10/22 14:10:43;;;;;;;;;;;;;;;13.44;85.64;100060.66;5085451;28;20008;-67
2023/10/22 14:13:50;;;;;;;;;;;;;;;13.61;85.66;100060.28;5070564;28;20021;-67
2023/10/22 14:16:54;;;;;;;;;;;;;;;13.66;85.36;100060.78;5073292;28;19970;-66
2023/10/22 14:19:58;;;;;;;;;;;;;;;13.62;84.92;100069.81;5088153;28;19931;-67
2023/10/22 14:23:01;;;;;;;;;;;;;;;13.71;84.87;100063.91;5090927;28;20003;-67
2023/10/22 14:26:06;;;;;;;;;;;;;;;13.95;83.93;100052.56;5091615;28;19927;-67
2023/10/22 14:29:09;;;;;;;;;;;;;;;13.90;83.01;100058.16;5090633;28;19967;-67
2023/10/22 14:32:38;;;;;;;;;;;;;;;13.88;83.04;100059.22;5091267;28;19966;-67
2023/10/22 14:35:41;;;;;;;;;;;;;;;13.90;84.04;100067.84;5078039;28;19964;-67
2023/10/22 14:38:44;;;;;;;;;;;;;;;13.97;84.13;100069.03;5071293;28;19978;-67
2023/10/22 14:41:47;;;;;;;;;;;;;;;13.99;84.04;100068.94;5103327;28;19968;-66
2023/10/22 14:45:15;;;;;;;;;;;;;;;13.85;83.03;100075.22;5113013;28;20301;-67
2023/10/22 14:48:18;;;;;;;;;;;;;;;13.91;81.75;100074.75;5112370;28;19977;-66
2023/10/22 14:51:21;;;;;;;;;;;;;;;14.01;80.93;100077.53;5114563;28;19941;-68
2023/10/22 14:54:24;;;;;;;;;;;;;;;13.99;81.46;100071.56;5116686;28;19923;-67
2023/10/22 14:57:27;;;;;;;;;;;;;;;14.04;80.48;100075.56;5116063;28;20106;-68
2023/10/22 15:00:30;;;;;;;;;;;;;;;14.06;80.68;100086.78;5116286;28;19974;-67
2023/10/22 15:03:34;;;;;;;;;;;;;;;14.04;80.83;100072.06;5106307;28;19922;-68
2023/10/22 15:06:38;;;;;;;;;;;;;;;14.02;80.51;100077.44;5075413;28;19999;-68
2023/10/22 15:09:41;;;;;;;;;;;;;;;14.07;80.54;100080.59;5074826;28;19924;-68
2023/10/22 15:12:48;;;;;;;;;;;;;;;14.02;79.72;100077.44;5074567;28;20356;-68
2023/10/22 15:15:51;;;;;;;;;;;;;;;14.08;79.33;100082.25;5074340;28;19922;-66
2023/10/22 15:18:58;;;;;;;;;;;;;;;13.93;79.22;100081.59;5074733;28;19944;-68
2023/10/22 15:22:01;;;;;;;;;;;;;;;14.00;79.34;100087.22;5074567;28;20024;-66
2023/10/22 15:29:20;;;;;;;;;;;;;;;13.93;79.17;100089.47;5074208;28;19975;-67
2023/10/22 15:32:23;;;;;;;;;;;;;;;13.85;79.32;100083.13;5079941;28;19927;-67
2023/10/22 15:35:30;;;;;;;;;;;;;;;13.85;79.57;100085.75;5091907;28;20348;-66
2023/10/22 15:38:34;;;;;;;;;;;;;;;13.73;79.95;100100.59;5092885;28;19973;-68
2023/10/22 15:41:36;;;;;;;;;;;;;;;13.76;79.97;100102.16;5093099;28;20378;-68
2023/10/22 15:44:41;;;;;;;;;;;;;;;13.81;79.36;100110.53;5093906;28;20288;-67
2023/10/22 15:47:44;;;;;;;;;;;;;;;13.80;79.72;100108.88;5094439;28;19927;-67
2023/10/22 15:50:48;;;;;;;;;;;;;;;13.62;80.29;100109.22;5092134;28;20420;-67
2023/10/22 15:53:52;;;;;;;;;;;;;;;13.64;80.21;100111.75;5092269;28;19964;-67
2023/10/22 15:56:55;;;;;;;;;;;;;;;13.85;80.15;100117.28;5093378;28;19923;-66
2023/10/22 15:59:59;;;;;;;;;;;;;;;13.77;79.35;100119.59;5093037;28;19927;-66
2023/10/22 16:03:05;;;;;;;;;;;;;;;13.69;81.14;100118.38;5093091;28;20121;-68
2023/10/22 16:06:08;;;;;;;;;;;;;;;13.69;82.56;100123.63;5091389;28;19966;-68